createdAt,value
2023-01-06T00:02:27.386Z,12.90
2023-01-06T00:05:15.867Z,12.90
2023-01-06T00:08:03.752Z,13.00
2023-01-06T00:10:51.848Z,13.00
2023-01-06T00:13:41.502Z,13.00
2023-01-06T00:16:30.376Z,13.00
2023-01-06T00:19:18.131Z,12.90
2023-01-06T00:22:06.098Z,12.90
2023-01-06T00:24:53.877Z,13.00
2023-01-06T00:27:42.003Z,13.00
2023-01-06T00:30:13.769Z,12.90
2023-01-06T00:32:42.861Z,12.90
2023-01-06T00:35:11.892Z,13.00
2023-01-06T00:37:40.777Z,13.00
2023-01-06T00:40:10.954Z,12.90
2023-01-06T00:42:39.918Z,12.90
2023-01-06T00:45:09.745Z,12.90
2023-01-06T00:47:40.389Z,12.90
2023-01-06T00:50:09.984Z,12.90
2023-01-06T00:52:41.616Z,12.90
2023-01-06T00:55:11.140Z,13.00
2023-01-06T00:57:58.878Z,13.00
2023-01-06T01:00:46.528Z,13.00
2023-01-06T01:03:36.965Z,13.00
2023-01-06T01:06:24.950Z,12.90
2023-01-06T01:09:15.720Z,12.90
2023-01-06T01:12:12.962Z,12.90
2023-01-06T01:15:01.046Z,12.90
2023-01-06T01:17:48.953Z,13.00
2023-01-06T01:20:38.872Z,12.90
2023-01-06T01:23:26.382Z,12.90
2023-01-06T01:26:14.139Z,12.90
2023-01-06T01:29:02.245Z,12.80
2023-01-06T01:31:50.230Z,12.80
2023-01-06T01:34:37.828Z,12.80
2023-01-06T01:37:27.021Z,12.80
2023-01-06T01:40:14.552Z,12.80
2023-01-06T01:43:02.310Z,12.70
2023-01-06T01:45:52.427Z,12.70
2023-01-06T01:48:40.569Z,12.70
2023-01-06T01:51:32.992Z,12.60
2023-01-06T01:54:29.712Z,12.60
2023-01-06T01:57:01.252Z,12.70
2023-01-06T01:59:33.425Z,12.50
2023-01-06T02:02:03.082Z,12.50
2023-01-06T02:04:36.689Z,12.50
2023-01-06T02:07:07.200Z,12.40
2023-01-06T02:09:45.152Z,12.40
2023-01-06T02:12:14.514Z,12.40
2023-01-06T02:14:43.943Z,12.40
2023-01-06T02:17:34.405Z,12.40
2023-01-06T02:20:30.405Z,12.40
2023-01-06T02:23:47.306Z,12.40
2023-01-06T02:26:53.239Z,12.30
2023-01-06T02:30:00.398Z,12.30
2023-01-06T02:32:45.721Z,12.30
2023-01-06T02:35:50.518Z,12.30
2023-01-06T02:38:54.877Z,12.20
2023-01-06T02:41:44.859Z,12.20
2023-01-06T02:44:36.495Z,12.20
2023-01-06T02:47:33.221Z,12.20
2023-01-06T02:50:31.045Z,12.20
2023-01-06T02:53:23.581Z,12.20
2023-01-06T02:56:12.173Z,12.20
2023-01-06T02:59:03.841Z,12.10
2023-01-06T03:01:54.556Z,12.20
2023-01-06T03:04:47.634Z,12.30
2023-01-06T03:07:39.390Z,12.30
2023-01-06T03:10:28.795Z,12.20
2023-01-06T03:13:23.807Z,12.10
2023-01-06T03:16:17.480Z,12.20
2023-01-06T03:19:05.835Z,12.20
2023-01-06T03:21:54.473Z,12.20
2023-01-06T03:24:46.331Z,12.10
2023-01-06T03:27:35.234Z,12.10
2023-01-06T03:30:23.558Z,12.10
2023-01-06T03:33:22.978Z,12.10
2023-01-06T03:36:23.586Z,12.10
2023-01-06T03:39:02.407Z,12.20
2023-01-06T03:41:56.873Z,12.10
2023-01-06T03:44:35.314Z,12.10
2023-01-06T03:47:08.933Z,12.10
2023-01-06T03:49:46.657Z,12.20
2023-01-06T03:52:20.320Z,12.20
2023-01-06T03:54:56.301Z,12.20
2023-01-06T03:57:32.858Z,12.10
2023-01-06T04:00:07.187Z,12.00
2023-01-06T04:02:43.054Z,12.10
2023-01-06T04:05:36.052Z,12.10
2023-01-06T04:08:24.532Z,12.10
2023-01-06T04:11:32.599Z,12.10
2023-01-06T04:14:21.123Z,12.00
2023-01-06T04:17:09.071Z,11.90
2023-01-06T04:19:57.395Z,12.00
2023-01-06T04:22:45.491Z,11.90
2023-01-06T04:25:33.983Z,12.00
2023-01-06T04:28:29.863Z,12.10
2023-01-06T04:31:19.962Z,12.00
2023-01-06T04:34:10.374Z,12.00
2023-01-06T04:36:58.314Z,12.00
2023-01-06T04:39:46.045Z,12.00
2023-01-06T04:42:54.648Z,12.00
2023-01-06T04:45:43.235Z,12.00
2023-01-06T04:48:32.675Z,12.10
2023-01-06T04:51:20.376Z,12.20
2023-01-06T04:54:08.366Z,12.10
2023-01-06T04:56:55.764Z,12.10
2023-01-06T04:59:43.321Z,12.00
2023-01-06T05:02:31.127Z,12.10
2023-01-06T05:05:01.485Z,12.10
2023-01-06T05:07:30.520Z,12.00
2023-01-06T05:09:59.459Z,12.00
2023-01-06T05:12:28.633Z,12.00
2023-01-06T05:14:57.351Z,11.90
2023-01-06T05:17:27.184Z,11.90
2023-01-06T05:19:56.256Z,11.90
2023-01-06T05:22:26.526Z,11.90
2023-01-06T05:24:55.595Z,12.00
2023-01-06T05:27:24.736Z,12.10
2023-01-06T05:29:53.510Z,12.30
2023-01-06T05:32:22.385Z,12.30
2023-01-06T05:35:10.700Z,12.30
2023-01-06T05:37:59.588Z,12.20
2023-01-06T05:40:52.245Z,12.20
2023-01-06T05:43:40.006Z,12.20
2023-01-06T05:46:27.760Z,12.20
2023-01-06T05:49:15.549Z,12.10
2023-01-06T05:52:03.416Z,12.10
2023-01-06T05:54:52.596Z,12.10
2023-01-06T05:57:40.162Z,12.00
2023-01-06T06:00:27.666Z,12.10
2023-01-06T06:03:15.543Z,12.10
2023-01-06T06:06:04.336Z,12.10
2023-01-06T06:08:52.847Z,12.10
2023-01-06T06:11:41.596Z,12.20
2023-01-06T06:14:29.242Z,12.20
2023-01-06T06:17:17.417Z,12.20
2023-01-06T06:20:05.955Z,12.10
2023-01-06T06:22:54.106Z,12.20
2023-01-06T06:25:41.875Z,12.10
2023-01-06T06:28:33.165Z,12.10
2023-01-06T06:31:23.593Z,12.10
2023-01-06T06:33:53.465Z,12.10
2023-01-06T06:36:23.579Z,12.10
2023-01-06T06:38:53.894Z,12.10
2023-01-06T06:41:23.856Z,12.20
2023-01-06T06:43:54.691Z,12.20
2023-01-06T06:46:24.045Z,12.30
2023-01-06T06:48:53.010Z,12.30
2023-01-06T06:51:23.697Z,12.40
2023-01-06T06:53:53.283Z,12.40
2023-01-06T06:56:22.753Z,12.50
2023-01-06T06:59:12.057Z,12.40
2023-01-06T07:02:00.090Z,12.40
2023-01-06T07:04:47.923Z,12.40
2023-01-06T07:07:35.462Z,12.30
2023-01-06T07:10:23.288Z,12.30
2023-01-06T07:13:11.487Z,12.30
2023-01-06T07:16:00.300Z,12.20
2023-01-06T07:18:48.792Z,12.10
2023-01-06T07:21:38.435Z,12.20
2023-01-06T07:24:26.499Z,12.20
2023-01-06T07:27:14.144Z,12.30
2023-01-06T07:30:02.110Z,12.20
2023-01-06T07:32:52.141Z,12.30
2023-01-06T07:35:39.995Z,12.20
2023-01-06T07:38:27.807Z,12.20
2023-01-06T07:41:15.631Z,12.10
2023-01-06T07:44:03.353Z,12.10
2023-01-06T07:46:51.189Z,12.10
2023-01-06T07:49:40.329Z,12.20
2023-01-06T07:52:27.973Z,12.20
2023-01-06T07:55:15.801Z,12.20
2023-01-06T07:58:06.306Z,12.20
2023-01-06T08:00:35.594Z,12.20
2023-01-06T08:03:06.664Z,12.20
2023-01-06T08:05:41.581Z,12.30
2023-01-06T08:08:11.416Z,12.20
2023-01-06T08:10:41.369Z,12.20
2023-01-06T08:13:10.772Z,12.10
2023-01-06T08:15:40.436Z,12.10
2023-01-06T08:18:09.771Z,12.10
2023-01-06T08:20:40.233Z,12.00
2023-01-06T08:23:09.320Z,12.10
2023-01-06T08:25:38.342Z,12.20
2023-01-06T08:28:25.917Z,12.30
2023-01-06T08:31:15.548Z,12.40
2023-01-06T08:34:03.810Z,12.30
2023-01-06T08:36:53.613Z,12.30
2023-01-06T08:39:41.561Z,12.40
2023-01-06T08:42:28.986Z,12.30
2023-01-06T08:45:17.214Z,12.30
2023-01-06T08:48:05.389Z,12.20
2023-01-06T08:50:53.587Z,12.20
2023-01-06T08:53:43.884Z,12.30
2023-01-06T08:56:32.938Z,12.30
2023-01-06T08:59:20.104Z,12.40
2023-01-06T09:02:08.267Z,12.30
2023-01-06T09:04:56.307Z,12.20
2023-01-06T09:07:43.900Z,12.00
2023-01-06T09:10:33.031Z,12.00
2023-01-06T09:13:20.727Z,12.10
2023-01-06T09:16:09.460Z,12.10
2023-01-06T09:18:57.083Z,12.10
2023-01-06T09:21:46.207Z,12.10
2023-01-06T09:24:34.567Z,12.10
2023-01-06T09:27:23.640Z,12.10
2023-01-06T09:29:52.988Z,12.20
2023-01-06T09:32:21.707Z,12.10
2023-01-06T09:34:51.050Z,12.20
2023-01-06T09:37:20.255Z,12.20
2023-01-06T09:39:49.096Z,12.20
2023-01-06T09:42:34.799Z,12.10
2023-01-06T09:45:07.439Z,12.20
2023-01-06T09:47:41.193Z,12.10
2023-01-06T09:50:16.163Z,12.00
2023-01-06T09:52:50.604Z,12.00
2023-01-06T09:55:26.219Z,12.00
2023-01-06T09:58:18.641Z,12.00
2023-01-06T10:01:10.365Z,12.10
2023-01-06T10:04:00.382Z,12.00
2023-01-06T10:06:58.135Z,12.10
2023-01-06T10:09:54.715Z,12.10
2023-01-06T10:12:52.292Z,12.20
2023-01-06T10:15:49.773Z,12.30
2023-01-06T10:18:45.560Z,12.20
2023-01-06T10:21:38.953Z,12.30
2023-01-06T10:24:37.812Z,12.40
2023-01-06T10:27:29.153Z,12.30
2023-01-06T10:30:22.099Z,12.30
2023-01-06T10:33:17.443Z,12.20
2023-01-06T10:36:13.423Z,12.30
2023-01-06T10:38:45.022Z,12.30
2023-01-06T10:41:23.630Z,12.30
2023-01-06T10:43:52.770Z,12.30
2023-01-06T10:46:23.717Z,12.40
2023-01-06T10:48:55.800Z,12.40
2023-01-06T10:51:36.592Z,12.30
2023-01-06T10:54:10.222Z,12.40
2023-01-06T10:56:42.437Z,12.20
2023-01-06T10:59:12.968Z,12.10
2023-01-06T11:01:50.554Z,12.10
2023-01-06T11:04:21.573Z,12.20
2023-01-06T11:06:52.634Z,12.20
2023-01-06T11:09:29.787Z,12.30
2023-01-06T11:12:02.469Z,12.20
2023-01-06T11:14:32.099Z,12.20
2023-01-06T11:17:03.402Z,12.10
2023-01-06T11:19:39.014Z,12.20
2023-01-06T11:22:35.326Z,12.30
2023-01-06T11:25:23.151Z,12.30
2023-01-06T11:28:17.600Z,12.30
2023-01-06T11:30:52.619Z,12.30
2023-01-06T11:33:24.700Z,12.30
2023-01-06T11:35:56.637Z,12.30
2023-01-06T11:38:26.649Z,12.20
2023-01-06T11:40:56.470Z,12.20
2023-01-06T11:43:31.477Z,12.20
2023-01-06T11:46:03.608Z,12.30
2023-01-06T11:48:35.621Z,12.30
2023-01-06T11:51:08.984Z,12.30
2023-01-06T11:53:39.975Z,12.30
2023-01-06T11:56:19.893Z,12.20
2023-01-06T11:58:57.971Z,12.20
2023-01-06T12:01:33.420Z,12.20
2023-01-06T12:04:13.723Z,12.20
2023-01-06T12:06:45.672Z,12.30
2023-01-06T12:09:20.119Z,12.40
2023-01-06T12:12:08.259Z,12.40
2023-01-06T12:14:39.711Z,12.50
2023-01-06T12:17:14.793Z,12.50
2023-01-06T12:19:49.697Z,12.40
2023-01-06T12:22:24.909Z,12.40
2023-01-06T12:24:57.719Z,12.30
2023-01-06T12:27:35.100Z,12.30
2023-01-06T12:30:09.853Z,12.50
2023-01-06T12:32:43.057Z,12.50
2023-01-06T12:35:18.312Z,12.50
2023-01-06T12:37:51.434Z,12.50
2023-01-06T12:40:28.132Z,12.40
2023-01-06T12:43:06.112Z,12.50
2023-01-06T12:45:46.642Z,12.60
2023-01-06T12:48:26.861Z,12.70
2023-01-06T12:51:00.502Z,12.80
2023-01-06T12:53:33.621Z,12.80
2023-01-06T12:56:43.064Z,12.90
2023-01-06T12:59:36.036Z,12.90
2023-01-06T13:02:38.937Z,13.00
2023-01-06T13:05:50.803Z,13.00
2023-01-06T13:08:57.120Z,13.00
2023-01-06T13:12:27.302Z,13.00
2023-01-06T13:15:04.953Z,13.00
2023-01-06T13:17:41.362Z,12.90
2023-01-06T13:20:19.174Z,13.00
2023-01-06T13:22:57.178Z,12.90
2023-01-06T13:25:42.672Z,12.90
2023-01-06T13:28:19.685Z,13.00
2023-01-06T13:31:21.221Z,13.10
2023-01-06T13:34:04.846Z,13.00
2023-01-06T13:37:04.125Z,13.10
2023-01-06T13:39:36.386Z,13.30
2023-01-06T13:42:08.494Z,13.40
2023-01-06T13:44:40.083Z,13.50
2023-01-06T13:47:15.020Z,13.60
2023-01-06T13:50:03.150Z,13.60
2023-01-06T13:52:52.642Z,13.50
2023-01-06T13:55:40.595Z,13.50
2023-01-06T13:58:38.237Z,13.40
2023-01-06T14:01:34.260Z,13.30
2023-01-06T14:04:46.778Z,13.30
2023-01-06T14:07:36.499Z,13.50
2023-01-06T14:10:24.321Z,13.50
2023-01-06T14:13:21.631Z,13.50
2023-01-06T14:16:14.962Z,13.60
2023-01-06T14:19:07.663Z,13.60
2023-01-06T14:22:14.996Z,13.50
2023-01-06T14:25:05.716Z,13.50
2023-01-06T14:28:07.546Z,13.50
2023-01-06T14:30:37.432Z,13.50
2023-01-06T14:33:36.491Z,13.50
2023-01-06T14:36:11.982Z,13.40
2023-01-06T14:38:46.932Z,13.30
2023-01-06T14:41:23.171Z,13.30
2023-01-06T14:43:55.632Z,13.30
2023-01-06T14:46:28.970Z,13.30
2023-01-06T14:49:02.374Z,13.50
2023-01-06T14:51:33.021Z,13.50
2023-01-06T14:54:06.728Z,13.50
2023-01-06T14:56:55.493Z,13.60
2023-01-06T14:59:43.416Z,13.60
2023-01-06T15:02:31.715Z,13.60
2023-01-06T15:05:22.255Z,13.40
2023-01-06T15:08:18.129Z,13.10
2023-01-06T15:10:50.826Z,13.00
2023-01-06T15:13:38.535Z,12.90
2023-01-06T15:16:35.288Z,12.90
2023-01-06T15:19:23.055Z,12.90
2023-01-06T15:22:13.946Z,12.90
2023-01-06T15:25:01.876Z,13.10
2023-01-06T15:27:53.344Z,13.10
2023-01-06T15:30:24.734Z,13.20
2023-01-06T15:33:12.960Z,13.20
2023-01-06T15:36:01.805Z,13.20
2023-01-06T15:38:51.357Z,13.20
2023-01-06T15:41:40.540Z,13.10
2023-01-06T15:44:32.098Z,13.00
2023-01-06T15:47:31.998Z,13.10
2023-01-06T15:50:22.705Z,13.20
2023-01-06T15:53:21.629Z,13.20
2023-01-06T15:56:15.932Z,13.20
2023-01-06T15:59:03.931Z,13.20
2023-01-06T16:01:55.446Z,13.20
2023-01-06T16:04:45.773Z,13.20
2023-01-06T16:07:39.425Z,13.20
2023-01-06T16:10:36.391Z,13.20
2023-01-06T16:13:28.992Z,13.20
2023-01-06T16:16:28.849Z,13.20
2023-01-06T16:19:21.155Z,13.20
2023-01-06T16:22:28.369Z,13.20
2023-01-06T16:25:25.830Z,13.10
2023-01-06T16:28:20.302Z,13.10
2023-01-06T16:31:10.765Z,13.00
2023-01-06T16:34:18.215Z,13.00
2023-01-06T16:37:00.181Z,13.00
2023-01-06T16:39:48.266Z,13.00
2023-01-06T16:42:43.764Z,13.00
2023-01-06T16:45:36.443Z,12.90
2023-01-06T16:48:24.511Z,12.90
2023-01-06T16:51:18.824Z,12.90
2023-01-06T16:54:11.736Z,12.90
2023-01-06T16:56:53.137Z,12.90
2023-01-06T16:59:41.129Z,12.70
2023-01-06T17:02:28.798Z,12.60
2023-01-06T17:05:22.078Z,12.60
2023-01-06T17:08:15.937Z,12.60
2023-01-06T17:11:13.893Z,12.60
2023-01-06T17:14:03.594Z,12.60
2023-01-06T17:16:51.768Z,12.60
2023-01-06T17:19:23.287Z,12.60
2023-01-06T17:22:01.067Z,12.60
2023-01-06T17:24:33.009Z,12.60
2023-01-06T17:27:16.725Z,12.60
2023-01-06T17:29:45.596Z,12.60
2023-01-06T17:32:19.363Z,12.70
2023-01-06T17:34:48.718Z,12.60
2023-01-06T17:37:23.566Z,12.70
2023-01-06T17:39:54.368Z,12.70
2023-01-06T17:42:28.486Z,12.70
2023-01-06T17:44:59.339Z,12.70
2023-01-06T17:47:30.730Z,12.70
2023-01-06T17:50:01.188Z,12.60
2023-01-06T17:52:33.288Z,12.60
2023-01-06T17:55:39.866Z,12.60
2023-01-06T17:58:14.746Z,12.70
2023-01-06T18:00:44.466Z,12.70
2023-01-06T18:03:19.575Z,12.70
2023-01-06T18:06:07.350Z,12.60
2023-01-06T18:08:39.201Z,12.60
2023-01-06T18:11:29.725Z,12.50
2023-01-06T18:14:15.267Z,12.50
2023-01-06T18:16:47.070Z,12.50
2023-01-06T18:19:26.356Z,12.50
2023-01-06T18:21:55.964Z,12.60
2023-01-06T18:24:30.627Z,12.60
2023-01-06T18:27:01.911Z,12.60
2023-01-06T18:29:36.374Z,12.50
2023-01-06T18:32:24.870Z,12.50
2023-01-06T18:34:55.352Z,12.60
2023-01-06T18:37:27.250Z,12.50
2023-01-06T18:40:00.318Z,12.50
2023-01-06T18:42:33.264Z,12.50
2023-01-06T18:45:21.592Z,12.50
2023-01-06T18:47:55.360Z,12.50
2023-01-06T18:50:31.007Z,12.60
2023-01-06T18:53:01.085Z,12.50
2023-01-06T18:55:37.215Z,12.60
2023-01-06T18:58:18.583Z,12.60
2023-01-06T19:00:53.829Z,12.50
2023-01-06T19:03:37.202Z,12.60
2023-01-06T19:06:28.582Z,12.60
2023-01-06T19:08:58.508Z,12.60
2023-01-06T19:11:29.492Z,12.60
2023-01-06T19:14:02.860Z,12.50
2023-01-06T19:16:36.649Z,12.50
2023-01-06T19:19:26.663Z,12.40
2023-01-06T19:22:11.201Z,12.50
2023-01-06T19:24:46.626Z,12.50
2023-01-06T19:27:45.722Z,12.60
2023-01-06T19:30:42.229Z,12.50
2023-01-06T19:33:27.452Z,12.40
2023-01-06T19:36:03.283Z,12.40
2023-01-06T19:38:36.889Z,12.40
2023-01-06T19:41:10.597Z,12.40
2023-01-06T19:43:39.741Z,12.40
2023-01-06T19:46:17.649Z,12.50
2023-01-06T19:48:47.292Z,12.40
2023-01-06T19:51:27.444Z,12.40
2023-01-06T19:54:27.314Z,12.40
2023-01-06T19:57:25.419Z,12.40
2023-01-06T19:59:57.372Z,12.40
2023-01-06T20:02:47.325Z,12.30
2023-01-06T20:05:35.195Z,12.30
2023-01-06T20:08:22.792Z,12.30
2023-01-06T20:11:11.267Z,12.40
2023-01-06T20:13:58.680Z,12.40
2023-01-06T20:16:47.153Z,12.40
2023-01-06T20:19:36.343Z,12.30
2023-01-06T20:22:25.480Z,12.30
2023-01-06T20:25:15.182Z,12.30
2023-01-06T20:27:44.216Z,12.20
2023-01-06T20:30:32.124Z,12.30
2023-01-06T20:33:20.186Z,12.20
2023-01-06T20:36:09.512Z,12.20
2023-01-06T20:38:57.581Z,12.20
2023-01-06T20:41:57.670Z,12.20
2023-01-06T20:45:04.393Z,12.30
2023-01-06T20:48:12.645Z,12.30
2023-01-06T20:51:22.777Z,12.30
2023-01-06T20:54:36.384Z,12.20
2023-01-06T20:57:43.591Z,12.10
2023-01-06T21:00:31.388Z,12.10
2023-01-06T21:03:19.696Z,12.20
2023-01-06T21:06:07.425Z,12.20
2023-01-06T21:09:05.445Z,12.20
2023-01-06T21:11:53.718Z,12.20
2023-01-06T21:14:42.404Z,12.20
2023-01-06T21:17:30.615Z,12.30
2023-01-06T21:20:20.410Z,12.30
2023-01-06T21:23:10.075Z,12.20
2023-01-06T21:26:00.409Z,12.20
2023-01-06T21:28:48.679Z,12.30
2023-01-06T21:31:36.454Z,12.20
2023-01-06T21:34:31.502Z,12.20
2023-01-06T21:37:20.942Z,12.20
2023-01-06T21:40:12.484Z,12.20
2023-01-06T21:43:08.770Z,12.20
2023-01-06T21:45:57.465Z,12.30
2023-01-06T21:48:45.579Z,12.30
2023-01-06T21:51:34.470Z,12.20
2023-01-06T21:54:23.709Z,12.20
2023-01-06T21:57:12.411Z,12.20
2023-01-06T22:00:10.462Z,12.30
2023-01-06T22:03:00.779Z,12.20
2023-01-06T22:05:49.419Z,12.20
2023-01-06T22:08:38.677Z,12.20
2023-01-06T22:11:28.428Z,12.20
2023-01-06T22:14:18.772Z,12.20
2023-01-06T22:17:08.527Z,12.20
2023-01-06T22:20:21.467Z,12.20
2023-01-06T22:23:29.663Z,12.20
2023-01-06T22:26:49.407Z,12.20
2023-01-06T22:29:56.653Z,12.20
2023-01-06T22:32:51.497Z,12.20
2023-01-06T22:35:46.405Z,12.20
2023-01-06T22:38:53.656Z,12.20
2023-01-06T22:41:42.416Z,12.30
2023-01-06T22:44:50.509Z,12.30
2023-01-06T22:48:05.410Z,12.30
2023-01-06T22:51:20.435Z,12.30
2023-01-06T22:54:08.698Z,12.30
2023-01-06T22:57:15.536Z,12.20
2023-01-06T23:00:21.785Z,12.20
2023-01-06T23:03:30.523Z,12.20
2023-01-06T23:06:35.524Z,12.30
2023-01-06T23:09:42.691Z,12.30
2023-01-06T23:12:44.493Z,12.30
2023-01-06T23:15:58.470Z,12.30
2023-01-06T23:18:49.616Z,12.20
2023-01-06T23:21:56.401Z,12.10
2023-01-06T23:24:46.649Z,12.10
2023-01-06T23:27:55.402Z,12.10
2023-01-06T23:31:16.661Z,12.00
2023-01-06T23:34:28.937Z,11.90
2023-01-06T23:37:16.509Z,11.80
2023-01-06T23:40:23.687Z,11.80
2023-01-06T23:43:12.435Z,11.90
2023-01-06T23:46:28.473Z,12.00
2023-01-06T23:49:19.610Z,12.00
2023-01-06T23:52:28.518Z,12.10
2023-01-06T23:55:39.688Z,12.20
2023-01-06T23:58:48.478Z,12.10
